createdAt,value
2018-06-09T00:02:02.906Z,73.12
2018-06-09T00:04:32.536Z,73.51
2018-06-09T00:07:02.158Z,73.22
2018-06-09T00:09:31.712Z,74.01
2018-06-09T00:12:01.031Z,73.75
2018-06-09T00:14:30.830Z,74.24
2018-06-09T00:17:00.391Z,74.20
2018-06-09T00:19:30.743Z,74.93
2018-06-09T00:22:00.504Z,75.98
2018-06-09T00:24:30.161Z,75.87
2018-06-09T00:27:00.046Z,76.15
2018-06-09T00:29:30.081Z,76.41
2018-06-09T00:32:00.275Z,77.06
2018-06-09T00:34:30.019Z,77.26
2018-06-09T00:36:59.345Z,77.67
2018-06-09T00:39:29.066Z,77.22
2018-06-09T00:41:58.489Z,77.68
2018-06-09T00:44:28.160Z,77.30
2018-06-09T00:46:57.525Z,77.34
2018-06-09T00:49:27.229Z,77.36
2018-06-09T00:51:56.562Z,77.69
2018-06-09T00:54:25.934Z,78.56
2018-06-09T00:56:55.261Z,78.01
2018-06-09T00:59:24.642Z,78.20
2018-06-09T01:01:54.396Z,78.13
2018-06-09T01:04:23.734Z,78.33
2018-06-09T01:06:53.403Z,78.86
2018-06-09T01:09:23.142Z,78.31
2018-06-09T01:11:52.725Z,78.16
2018-06-09T01:14:23.083Z,78.11
2018-06-09T01:16:53.139Z,78.00
2018-06-09T01:19:22.495Z,78.36
2018-06-09T01:21:52.493Z,78.72
2018-06-09T01:24:22.770Z,78.63
2018-06-09T01:26:52.432Z,78.56
2018-06-09T01:29:22.253Z,78.87
2018-06-09T01:31:52.658Z,78.85
2018-06-09T01:34:21.975Z,79.80
2018-06-09T01:36:51.367Z,79.89
2018-06-09T01:39:20.719Z,79.36
2018-06-09T01:41:50.641Z,79.62
2018-06-09T01:44:21.210Z,79.23
2018-06-09T01:46:50.576Z,78.77
2018-06-09T01:49:20.365Z,78.30
2018-06-09T01:51:49.869Z,78.78
2018-06-09T01:54:19.575Z,79.28
2018-06-09T01:56:48.928Z,79.23
2018-06-09T01:59:18.605Z,79.22
2018-06-09T02:01:47.934Z,79.08
2018-06-09T02:04:18.755Z,79.84
2018-06-09T02:06:48.161Z,79.36
2018-06-09T02:09:17.731Z,79.12
2018-06-09T02:11:47.351Z,79.20
2018-06-09T02:14:16.684Z,78.87
2018-06-09T02:16:46.363Z,79.74
2018-06-09T02:19:16.612Z,79.08
2018-06-09T02:21:45.982Z,79.34
2018-06-09T02:24:15.285Z,79.20
2018-06-09T02:26:45.276Z,79.33
2018-06-09T02:29:15.000Z,78.86
2018-06-09T02:31:44.727Z,78.37
2018-06-09T02:34:14.046Z,78.22
2018-06-09T02:36:43.417Z,77.99
2018-06-09T02:39:13.116Z,77.87
2018-06-09T02:41:42.996Z,78.50
2018-06-09T02:44:13.198Z,78.44
2018-06-09T02:46:42.565Z,78.81
2018-06-09T02:49:11.861Z,78.93
2018-06-09T02:51:41.222Z,79.57
2018-06-09T02:54:11.522Z,79.87
2018-06-09T02:56:41.265Z,80.96
2018-06-09T02:59:10.565Z,81.15
2018-06-09T03:01:40.245Z,81.30
2018-06-09T03:04:09.553Z,81.15
2018-06-09T03:06:39.727Z,80.98
2018-06-09T03:09:09.382Z,80.79
2018-06-09T03:11:38.733Z,80.46
2018-06-09T03:14:08.129Z,80.16
2018-06-09T03:16:37.526Z,79.96
2018-06-09T03:19:06.829Z,80.19
2018-06-09T03:21:36.173Z,79.45
2018-06-09T03:24:05.508Z,80.37
2018-06-09T03:26:35.231Z,81.24
2018-06-09T03:29:05.417Z,80.56
2018-06-09T03:31:35.050Z,80.73
2018-06-09T03:34:05.249Z,79.89
2018-06-09T03:36:34.580Z,80.40
2018-06-09T03:39:05.232Z,80.30
2018-06-09T03:41:34.603Z,81.50
2018-06-09T03:44:03.934Z,81.60
2018-06-09T03:46:33.512Z,81.01
2018-06-09T03:49:05.058Z,80.97
2018-06-09T03:51:34.491Z,80.98
2018-06-09T03:54:03.849Z,81.11
2018-06-09T03:56:33.890Z,81.17
2018-06-09T03:59:03.210Z,81.25
2018-06-09T04:01:32.543Z,81.39
2018-06-09T04:04:02.127Z,80.50
2018-06-09T04:06:31.794Z,80.75
2018-06-09T04:09:01.560Z,80.53
2018-06-09T04:11:31.687Z,80.98
2018-06-09T04:14:01.314Z,80.41
2018-06-09T04:16:31.045Z,80.49
2018-06-09T04:19:00.377Z,80.17
2018-06-09T04:21:29.710Z,80.17
2018-06-09T04:24:00.138Z,80.37
2018-06-09T04:26:29.839Z,80.52
2018-06-09T04:28:59.144Z,80.53
2018-06-09T04:31:28.769Z,80.19
2018-06-09T04:33:58.117Z,79.86
2018-06-09T04:36:27.424Z,80.42
2018-06-09T04:38:57.009Z,80.33
2018-06-09T04:41:26.698Z,80.42
2018-06-09T04:43:56.478Z,80.50
2018-06-09T04:46:25.821Z,81.00
2018-06-09T04:48:55.409Z,80.97
2018-06-09T04:51:24.750Z,80.83
2018-06-09T04:53:54.084Z,81.48
2018-06-09T04:56:23.527Z,82.21
2018-06-09T04:58:53.697Z,81.55
2018-06-09T05:01:23.029Z,81.15
2018-06-09T05:03:52.714Z,81.10
2018-06-09T05:06:22.376Z,81.26
2018-06-09T05:08:51.702Z,80.62
2018-06-09T05:11:21.061Z,80.31
2018-06-09T05:13:50.863Z,79.89
2018-06-09T05:16:20.610Z,79.19
2018-06-09T05:18:50.159Z,79.15
2018-06-09T05:21:19.496Z,79.15
2018-06-09T05:23:48.840Z,78.87
2018-06-09T05:26:18.220Z,78.53
2018-06-09T05:28:47.500Z,78.89
2018-06-09T05:31:17.140Z,78.84
2018-06-09T05:33:46.492Z,78.39
2018-06-09T05:36:16.217Z,78.26
2018-06-09T05:38:46.258Z,77.50
2018-06-09T05:41:15.592Z,77.99
2018-06-09T05:43:44.955Z,76.27
2018-06-09T05:46:14.256Z,76.09
2018-06-09T05:48:44.071Z,75.62
2018-06-09T05:51:13.384Z,75.00
2018-06-09T05:53:42.756Z,74.10
2018-06-09T05:56:12.179Z,74.71
2018-06-09T05:58:41.752Z,73.91
2018-06-09T06:01:11.072Z,73.83
2018-06-09T06:03:40.767Z,73.62
2018-06-09T06:06:10.201Z,73.42
2018-06-09T06:08:39.870Z,72.53
2018-06-09T06:11:09.201Z,72.68
2018-06-09T06:13:38.543Z,73.09
2018-06-09T06:16:07.880Z,72.55
2018-06-09T06:18:37.242Z,72.35
2018-06-09T06:21:06.844Z,72.87
2018-06-09T06:23:36.785Z,73.76
2018-06-09T06:26:06.498Z,74.53
2018-06-09T06:28:35.852Z,73.15
2018-06-09T06:31:06.139Z,73.49
2018-06-09T06:33:35.477Z,73.18
2018-06-09T06:36:04.916Z,72.97
2018-06-09T06:38:34.247Z,72.71
2018-06-09T06:41:03.539Z,72.70
2018-06-09T06:43:33.694Z,72.55
2018-06-09T06:46:03.084Z,72.55
2018-06-09T06:48:32.926Z,71.47
2018-06-09T06:51:02.875Z,71.26
2018-06-09T06:53:32.529Z,71.49
2018-06-09T06:56:02.073Z,71.04
2018-06-09T06:58:31.857Z,70.78
2018-06-09T07:01:01.490Z,71.68
2018-06-09T07:03:30.864Z,71.02
2018-06-09T07:06:00.552Z,72.06
2018-06-09T07:08:29.885Z,70.54
2018-06-09T07:10:59.634Z,69.85
2018-06-09T07:13:29.014Z,69.55
2018-06-09T07:15:58.664Z,69.61
2018-06-09T07:18:28.246Z,69.23
2018-06-09T07:20:57.579Z,68.66
2018-06-09T07:23:26.919Z,67.68
2018-06-09T07:25:56.965Z,66.56
2018-06-09T07:28:26.297Z,66.84
2018-06-09T07:30:55.628Z,65.16
2018-06-09T07:33:25.006Z,65.15
2018-06-09T07:35:54.313Z,65.06
2018-06-09T07:38:25.373Z,66.00
2018-06-09T07:40:54.776Z,64.82
2018-06-09T07:43:24.150Z,63.92
2018-06-09T07:45:53.524Z,63.94
2018-06-09T07:48:22.876Z,64.19
2018-06-09T07:50:52.337Z,64.08
2018-06-09T07:53:21.692Z,62.93
2018-06-09T07:55:51.023Z,62.92
2018-06-09T07:58:20.398Z,63.00
2018-06-09T08:00:49.997Z,63.82
2018-06-09T08:03:19.381Z,63.29
2018-06-09T08:05:49.096Z,63.22
2018-06-09T08:08:18.924Z,63.27
2018-06-09T08:10:48.565Z,63.42
2018-06-09T08:13:17.923Z,62.19
2018-06-09T08:15:47.953Z,62.12
2018-06-09T08:18:17.341Z,60.18
2018-06-09T08:20:46.698Z,59.72
2018-06-09T08:23:16.481Z,60.90
2018-06-09T08:25:45.821Z,60.34
2018-06-09T08:28:15.553Z,62.85
2018-06-09T08:30:44.875Z,61.66
2018-06-09T08:33:15.550Z,61.63
2018-06-09T08:35:44.857Z,60.75
2018-06-09T08:38:14.232Z,60.06
2018-06-09T08:40:43.553Z,59.09
2018-06-09T08:43:12.954Z,59.89
2018-06-09T08:45:42.727Z,59.43
2018-06-09T08:48:12.076Z,59.24
2018-06-09T08:50:41.810Z,59.00
2018-06-09T08:53:13.752Z,59.76
2018-06-09T08:55:43.228Z,61.06
2018-06-09T08:58:12.604Z,59.04
2018-06-09T09:00:41.921Z,58.18
2018-06-09T09:03:11.612Z,58.40
2018-06-09T09:05:41.050Z,55.06
2018-06-09T09:08:10.413Z,55.29
2018-06-09T09:10:40.096Z,54.97
2018-06-09T09:13:10.202Z,54.39
2018-06-09T09:15:41.199Z,55.43
2018-06-09T09:18:10.553Z,54.84
2018-06-09T09:20:40.233Z,54.67
2018-06-09T09:23:10.531Z,52.34
2018-06-09T09:25:39.857Z,54.29
2018-06-09T09:28:09.406Z,52.69
2018-06-09T09:30:38.735Z,51.40
2018-06-09T09:33:09.245Z,51.17
2018-06-09T09:35:39.148Z,49.26
2018-06-09T09:38:08.481Z,49.18
2018-06-09T09:40:38.174Z,50.55
2018-06-09T09:43:08.256Z,49.50
2018-06-09T09:45:39.045Z,49.40
2018-06-09T09:48:08.362Z,49.62
2018-06-09T09:50:37.737Z,49.29
2018-06-09T09:53:07.070Z,48.40
2018-06-09T09:55:36.428Z,48.77
2018-06-09T09:58:06.049Z,45.81
2018-06-09T10:00:37.555Z,47.17
2018-06-09T10:03:07.330Z,47.72
2018-06-09T10:05:37.361Z,47.06
2018-06-09T10:08:06.994Z,47.68
2018-06-09T10:10:36.378Z,48.05
2018-06-09T10:13:06.035Z,47.46
2018-06-09T10:15:35.377Z,47.09
2018-06-09T10:18:04.790Z,46.09
2018-06-09T10:20:35.843Z,46.08
2018-06-09T10:23:06.261Z,47.46
2018-06-09T10:25:35.984Z,47.88
2018-06-09T10:28:05.662Z,48.02
2018-06-09T10:30:35.007Z,46.09
2018-06-09T10:33:05.542Z,45.26
2018-06-09T10:35:34.902Z,43.91
2018-06-09T10:38:07.055Z,45.14
2018-06-09T10:40:38.568Z,45.10
2018-06-09T10:43:07.984Z,45.25
2018-06-09T10:45:38.112Z,45.38
2018-06-09T10:48:08.454Z,44.60
2018-06-09T10:50:38.361Z,43.84
2018-06-09T10:53:07.689Z,43.13
2018-06-09T10:55:37.028Z,42.65
2018-06-09T10:58:06.865Z,42.63
2018-06-09T11:00:36.230Z,43.29
2018-06-09T11:03:07.558Z,43.81
2018-06-09T11:05:36.933Z,42.51
2018-06-09T11:08:06.257Z,42.09
2018-06-09T11:10:35.630Z,41.32
2018-06-09T11:13:05.020Z,41.06
2018-06-09T11:15:35.419Z,42.56
2018-06-09T11:18:05.386Z,42.61
2018-06-09T11:20:35.077Z,40.08
2018-06-09T11:23:04.461Z,40.52
2018-06-09T11:25:35.134Z,41.53
2018-06-09T11:28:04.901Z,39.28
2018-06-09T11:30:34.250Z,40.23
2018-06-09T11:33:03.618Z,40.13
2018-06-09T11:35:32.954Z,39.18
2018-06-09T11:38:03.555Z,38.69
2018-06-09T11:40:32.956Z,40.37
2018-06-09T11:43:02.283Z,39.91
2018-06-09T11:45:32.561Z,39.54
2018-06-09T11:48:02.406Z,38.71
2018-06-09T11:50:31.769Z,37.45
2018-06-09T11:53:01.085Z,36.94
2018-06-09T11:55:31.188Z,37.95
2018-06-09T11:58:00.505Z,36.60
2018-06-09T12:00:30.214Z,36.39
2018-06-09T12:02:59.552Z,35.50
2018-06-09T12:05:28.960Z,35.70
2018-06-09T12:07:59.094Z,35.65
2018-06-09T12:10:29.479Z,33.77
2018-06-09T12:12:59.694Z,34.75
2018-06-09T12:15:29.037Z,33.84
2018-06-09T12:17:58.473Z,35.02
2018-06-09T12:20:27.870Z,34.58
2018-06-09T12:22:57.677Z,35.52
2018-06-09T12:25:27.043Z,34.45
2018-06-09T12:27:56.776Z,33.33
2018-06-09T12:30:26.368Z,33.37
2018-06-09T12:32:56.039Z,33.48
2018-06-09T12:35:25.479Z,35.01
2018-06-09T12:37:55.189Z,33.91
2018-06-09T12:40:25.355Z,33.95
2018-06-09T12:42:54.650Z,32.56
2018-06-09T12:45:23.980Z,33.52
2018-06-09T12:47:54.590Z,34.18
2018-06-09T12:50:24.883Z,33.29
2018-06-09T12:52:54.188Z,34.22
2018-06-09T12:55:23.845Z,33.63
2018-06-09T12:57:53.816Z,33.40
2018-06-09T13:00:23.541Z,33.31
2018-06-09T13:02:52.848Z,34.82
2018-06-09T13:05:22.226Z,32.55
2018-06-09T13:07:52.232Z,33.85
2018-06-09T13:10:21.572Z,32.06
2018-06-09T13:12:50.908Z,31.52
2018-06-09T13:15:20.247Z,31.88
2018-06-09T13:17:49.566Z,30.46
2018-06-09T13:20:18.891Z,28.63
2018-06-09T13:22:48.428Z,28.92
2018-06-09T13:25:17.750Z,30.10
2018-06-09T13:27:47.361Z,30.61
2018-06-09T13:30:16.714Z,30.49
2018-06-09T13:32:46.263Z,28.89
2018-06-09T13:35:15.633Z,27.92
2018-06-09T13:37:44.958Z,27.80
2018-06-09T13:40:14.336Z,27.25
2018-06-09T13:42:44.324Z,29.10
2018-06-09T13:45:14.401Z,28.34
2018-06-09T13:47:44.064Z,28.03
2018-06-09T13:50:13.417Z,27.67
2018-06-09T13:52:42.849Z,26.29
2018-06-09T13:55:12.880Z,28.05
2018-06-09T13:57:42.216Z,27.11
2018-06-09T14:00:11.874Z,25.68
2018-06-09T14:02:41.557Z,24.61
2018-06-09T14:05:11.149Z,26.12
2018-06-09T14:07:41.209Z,26.73
2018-06-09T14:10:10.639Z,26.21
2018-06-09T14:12:40.608Z,25.47
2018-06-09T14:15:10.197Z,24.56
2018-06-09T14:17:39.539Z,25.07
2018-06-09T14:20:08.851Z,25.01
2018-06-09T14:22:38.217Z,24.71
2018-06-09T14:25:07.781Z,25.20
2018-06-09T14:27:37.108Z,25.56
2018-06-09T14:30:06.477Z,25.95
2018-06-09T14:32:35.849Z,24.68
2018-06-09T14:35:05.188Z,24.22
2018-06-09T14:37:34.762Z,23.78
2018-06-09T14:40:04.467Z,23.08
2018-06-09T14:42:33.784Z,24.02
2018-06-09T14:45:03.508Z,24.05
2018-06-09T14:47:33.192Z,23.19
2018-06-09T14:50:02.996Z,22.74
2018-06-09T14:52:32.325Z,23.29
2018-06-09T14:55:01.697Z,22.85
2018-06-09T14:57:31.379Z,23.90
2018-06-09T15:00:02.400Z,23.93
2018-06-09T15:02:31.814Z,26.07
2018-06-09T15:05:01.813Z,26.23
2018-06-09T15:07:31.171Z,26.05
2018-06-09T15:10:00.909Z,26.28
2018-06-09T15:12:30.244Z,26.74
2018-06-09T15:14:59.556Z,28.49
2018-06-09T15:17:28.979Z,28.86
2018-06-09T15:19:58.279Z,28.36
2018-06-09T15:22:27.604Z,29.15
2018-06-09T15:24:56.909Z,29.71
2018-06-09T15:27:26.366Z,33.81
2018-06-09T15:29:55.676Z,32.69
2018-06-09T15:32:25.986Z,31.60
2018-06-09T15:34:55.653Z,33.10
2018-06-09T15:37:24.990Z,34.24
2018-06-09T15:39:54.321Z,34.06
2018-06-09T15:42:23.672Z,34.54
2018-06-09T15:44:53.287Z,37.13
2018-06-09T15:47:22.804Z,37.05
2018-06-09T15:49:52.350Z,38.18
2018-06-09T15:52:22.083Z,38.86
2018-06-09T15:54:51.390Z,39.92
2018-06-09T15:57:21.037Z,40.37
2018-06-09T15:59:50.579Z,41.10
2018-06-09T16:02:20.220Z,42.04
2018-06-09T16:04:49.959Z,43.05
2018-06-09T16:07:19.558Z,48.21
2018-06-09T16:09:48.910Z,53.33
2018-06-09T16:12:18.611Z,56.94
2018-06-09T16:14:48.345Z,59.79
2018-06-09T16:17:18.113Z,61.15
2018-06-09T16:19:47.436Z,63.28
2018-06-09T16:22:16.789Z,60.00
2018-06-09T16:24:47.076Z,61.01
2018-06-09T16:27:16.844Z,62.81
2018-06-09T16:29:46.173Z,63.89
2018-06-09T16:32:15.509Z,65.11
2018-06-09T16:34:45.535Z,65.78
2018-06-09T16:37:14.852Z,64.89
2018-06-09T16:39:44.200Z,64.65
2018-06-09T16:42:13.673Z,64.62
2018-06-09T16:44:43.256Z,65.60
2018-06-09T16:47:12.784Z,64.54
2018-06-09T16:49:42.620Z,62.28
2018-06-09T16:52:11.977Z,62.04
2018-06-09T16:54:42.217Z,62.00
2018-06-09T16:57:11.576Z,64.23
2018-06-09T16:59:40.910Z,66.11
2018-06-09T17:02:10.629Z,65.40
2018-06-09T17:04:40.789Z,64.96
2018-06-09T17:07:10.154Z,65.07
2018-06-09T17:09:40.502Z,67.00
2018-06-09T17:12:10.198Z,65.91
2018-06-09T17:14:40.509Z,64.00
2018-06-09T17:17:10.752Z,63.10
2018-06-09T17:19:40.353Z,63.10
2018-06-09T17:22:09.731Z,56.74
2018-06-09T17:24:39.082Z,56.08
2018-06-09T17:27:08.449Z,54.72
2018-06-09T17:29:38.761Z,55.42
2018-06-09T17:32:08.093Z,53.84
2018-06-09T17:34:37.530Z,53.76
2018-06-09T17:37:06.863Z,54.18
2018-06-09T17:39:36.197Z,52.88
2018-06-09T17:42:05.572Z,53.50
2018-06-09T17:44:34.930Z,54.05
2018-06-09T17:47:04.389Z,55.02
2018-06-09T17:49:35.417Z,53.62
2018-06-09T17:52:05.073Z,51.33
2018-06-09T17:54:34.843Z,50.59
2018-06-09T17:57:04.241Z,51.00
2018-06-09T17:59:33.548Z,52.84
2018-06-09T18:02:03.061Z,54.70
2018-06-09T18:04:32.386Z,55.90
2018-06-09T18:07:01.820Z,55.35
2018-06-09T18:09:31.123Z,56.24
2018-06-09T18:12:00.508Z,57.50
2018-06-09T18:14:30.244Z,57.69
2018-06-09T18:16:59.908Z,58.68
2018-06-09T18:19:29.707Z,57.96
2018-06-09T18:21:58.972Z,59.22
2018-06-09T18:24:28.784Z,58.54
2018-06-09T18:26:58.422Z,59.42
2018-06-09T18:29:28.431Z,61.09
2018-06-09T18:31:58.699Z,62.11
2018-06-09T18:34:28.033Z,63.75
2018-06-09T18:36:57.386Z,63.40
2018-06-09T18:39:26.952Z,63.80
2018-06-09T18:41:56.588Z,64.18
2018-06-09T18:44:26.478Z,64.71
2018-06-09T18:46:56.603Z,65.38
2018-06-09T18:49:25.933Z,65.27
2018-06-09T18:51:55.248Z,64.59
2018-06-09T18:54:25.041Z,63.68
2018-06-09T18:56:54.697Z,63.65
2018-06-09T18:59:24.020Z,63.36
2018-06-09T19:01:53.747Z,64.21
2018-06-09T19:04:23.772Z,63.14
2018-06-09T19:06:53.225Z,62.90
2018-06-09T19:09:23.016Z,63.14
2018-06-09T19:11:52.616Z,62.31
2018-06-09T19:14:21.941Z,63.39
2018-06-09T19:16:51.357Z,64.42
2018-06-09T19:19:21.648Z,65.25
2018-06-09T19:21:51.074Z,66.52
2018-06-09T19:24:20.402Z,69.31
2018-06-09T19:26:49.741Z,70.28
2018-06-09T19:29:20.093Z,71.21
2018-06-09T19:31:49.435Z,70.08
2018-06-09T19:34:19.082Z,68.89
2018-06-09T19:36:48.729Z,68.53
2018-06-09T19:39:18.933Z,66.86
2018-06-09T19:41:49.107Z,66.03
2018-06-09T19:44:18.451Z,64.93
2018-06-09T19:46:47.800Z,64.59
2018-06-09T19:49:17.116Z,64.80
2018-06-09T19:51:48.244Z,64.25
2018-06-09T19:54:17.601Z,63.90
2018-06-09T19:56:47.080Z,64.14
2018-06-09T19:59:17.064Z,66.44
2018-06-09T20:01:46.396Z,66.99
2018-06-09T20:04:15.787Z,68.32
2018-06-09T20:06:45.496Z,67.68
2018-06-09T20:09:14.841Z,66.93
2018-06-09T20:11:44.293Z,67.39
2018-06-09T20:14:14.006Z,68.16
2018-06-09T20:16:43.351Z,68.20
2018-06-09T20:19:12.752Z,67.84
2018-06-09T20:21:42.133Z,69.04
2018-06-09T20:24:12.110Z,67.50
2018-06-09T20:26:41.424Z,67.53
2018-06-09T20:29:10.873Z,67.20
2018-06-09T20:31:40.626Z,67.34
2018-06-09T20:34:09.962Z,68.23
2018-06-09T20:36:39.732Z,67.52
2018-06-09T20:39:09.076Z,67.74
2018-06-09T20:41:38.384Z,67.26
2018-06-09T20:44:07.761Z,67.51
2018-06-09T20:46:37.132Z,67.84
2018-06-09T20:49:06.479Z,67.24
2018-06-09T20:51:36.111Z,66.64
2018-06-09T20:54:06.224Z,66.86
2018-06-09T20:56:35.558Z,66.76
2018-06-09T20:59:04.901Z,66.39
2018-06-09T21:01:34.236Z,66.75
2018-06-09T21:04:03.590Z,66.79
2018-06-09T21:06:32.878Z,64.91
2018-06-09T21:09:02.537Z,64.35
2018-06-09T21:11:32.009Z,64.44
2018-06-09T21:14:01.821Z,66.04
2018-06-09T21:18:59.223Z,67.04
2018-06-09T21:21:28.847Z,66.92
2018-06-09T21:23:58.196Z,67.33
2018-06-09T21:26:33.122Z,67.11
2018-06-09T21:29:06.605Z,68.01
2018-06-09T21:31:40.062Z,67.88
2018-06-09T21:34:25.736Z,68.00
2018-06-09T21:36:57.511Z,68.41
2018-06-09T21:39:32.932Z,68.72
2018-06-09T21:42:07.866Z,68.30
2018-06-09T21:44:37.543Z,69.04
2018-06-09T21:47:06.866Z,69.64
2018-06-09T21:49:36.214Z,70.20
2018-06-09T21:52:05.616Z,70.87
2018-06-09T21:54:35.174Z,70.55
2018-06-09T21:57:04.517Z,71.24
2018-06-09T21:59:34.196Z,71.51
2018-06-09T22:02:03.567Z,70.90
2018-06-09T22:04:32.917Z,70.32
2018-06-09T22:07:02.232Z,70.97
2018-06-09T22:09:31.581Z,70.51
2018-06-09T22:12:00.905Z,70.60
2018-06-09T22:14:30.575Z,71.59
2018-06-09T22:17:00.478Z,73.75
2018-06-09T22:19:29.807Z,74.92
2018-06-09T22:21:59.522Z,75.98
2018-06-09T22:24:29.099Z,75.21
2018-06-09T22:26:58.745Z,74.71
2018-06-09T22:29:29.124Z,75.15
2018-06-09T22:31:58.483Z,73.24
2018-06-09T22:34:27.839Z,74.25
2018-06-09T22:36:57.204Z,73.79
2018-06-09T22:39:26.538Z,73.78
2018-06-09T22:41:56.264Z,74.23
2018-06-09T22:44:25.971Z,73.98
2018-06-09T22:46:55.329Z,75.77
2018-06-09T22:49:24.697Z,77.89
2018-06-09T22:51:55.427Z,78.32
2018-06-09T22:54:24.761Z,77.47
2018-06-09T22:56:54.101Z,75.81
2018-06-09T22:59:23.798Z,75.66
2018-06-09T23:01:53.153Z,76.95
2018-06-09T23:04:22.925Z,77.34
2018-06-09T23:06:52.230Z,77.75
2018-06-09T23:09:21.858Z,76.85
2018-06-09T23:11:51.213Z,76.52
2018-06-09T23:14:21.801Z,75.88
2018-06-09T23:16:51.137Z,75.13
2018-06-09T23:19:20.551Z,74.77
2018-06-09T23:21:49.875Z,74.61
2018-06-09T23:24:19.476Z,73.47
2018-06-09T23:26:49.201Z,72.76
2018-06-09T23:29:18.656Z,71.84
2018-06-09T23:31:48.043Z,72.43
2018-06-09T23:34:17.602Z,73.16
2018-06-09T23:36:47.208Z,73.19
2018-06-09T23:39:16.795Z,74.23
2018-06-09T23:41:46.509Z,75.86
2018-06-09T23:44:16.142Z,75.54
2018-06-09T23:46:45.483Z,75.26
2018-06-09T23:49:14.802Z,75.35
2018-06-09T23:51:44.170Z,75.31
2018-06-09T23:54:13.755Z,74.87
2018-06-09T23:56:43.146Z,74.45
2018-06-09T23:59:12.486Z,74.80
